createdAt,value
2022-08-19T00:01:13.561Z,19.43
2022-08-19T00:06:18.896Z,20.30
2022-08-19T00:11:25.764Z,20.73
2022-08-19T00:16:31.269Z,20.37
2022-08-19T00:21:40.605Z,18.90
2022-08-19T00:26:45.676Z,22.00
2022-08-19T00:31:53.983Z,20.20
2022-08-19T00:36:58.395Z,21.27
2022-08-19T00:42:02.198Z,20.47
2022-08-19T00:47:07.639Z,18.67
2022-08-19T00:52:23.217Z,19.83
2022-08-19T00:57:32.852Z,20.07
2022-08-19T01:02:37.970Z,20.93
2022-08-19T01:07:43.176Z,22.33
2022-08-19T01:12:47.413Z,21.40
2022-08-19T01:17:53.975Z,19.73
2022-08-19T01:23:00.906Z,19.27
2022-08-19T01:28:09.228Z,18.27
2022-08-19T01:33:15.829Z,17.17
2022-08-19T01:38:26.562Z,18.30
2022-08-19T01:43:30.480Z,18.07
2022-08-19T01:48:39.522Z,18.47
2022-08-19T01:53:44.837Z,16.80
2022-08-19T01:58:54.300Z,18.13
2022-08-19T02:03:57.998Z,17.40
2022-08-19T02:09:03.371Z,16.73
2022-08-19T02:14:09.390Z,17.23
2022-08-19T02:19:13.085Z,18.00
2022-08-19T02:24:18.226Z,16.80
2022-08-19T02:29:22.011Z,17.23
2022-08-19T02:34:26.280Z,17.00
2022-08-19T02:39:31.200Z,15.53
2022-08-19T02:44:34.806Z,15.40
2022-08-19T02:49:38.521Z,14.97
2022-08-19T02:54:43.703Z,14.93
2022-08-19T02:59:47.336Z,14.90
2022-08-19T03:04:50.965Z,14.00
2022-08-19T03:09:55.943Z,13.20
2022-08-19T03:14:59.493Z,12.70
2022-08-19T03:20:03.434Z,13.77
2022-08-19T03:25:09.261Z,13.40
2022-08-19T03:30:14.387Z,12.93
2022-08-19T03:35:24.093Z,13.20
2022-08-19T03:40:31.055Z,11.97
2022-08-19T03:45:34.974Z,12.53
2022-08-19T03:50:41.215Z,13.10
2022-08-19T03:55:46.224Z,13.80
2022-08-19T04:00:50.074Z,11.80
2022-08-19T04:05:54.571Z,12.90
2022-08-19T04:10:59.517Z,14.20
2022-08-19T04:16:03.211Z,13.37
2022-08-19T04:21:07.602Z,14.00
2022-08-19T04:26:16.670Z,13.13
2022-08-19T04:31:22.587Z,14.37
2022-08-19T04:36:28.580Z,14.53
2022-08-19T04:41:51.206Z,13.80
2022-08-19T04:46:55.321Z,13.03
2022-08-19T04:51:59.049Z,13.83
2022-08-19T04:57:06.177Z,13.87
2022-08-19T05:02:11.028Z,16.43
2022-08-19T05:07:14.720Z,15.90
2022-08-19T05:12:20.123Z,16.53
2022-08-19T05:17:27.659Z,18.10
2022-08-19T05:22:35.762Z,18.40
2022-08-19T05:27:40.857Z,19.03
2022-08-19T05:32:45.003Z,17.67
2022-08-19T05:37:49.026Z,18.93
2022-08-19T05:42:57.899Z,19.30
2022-08-19T05:48:01.422Z,20.77
2022-08-19T05:53:05.219Z,19.77
2022-08-19T05:58:10.191Z,21.27
2022-08-19T06:03:13.852Z,18.63
2022-08-19T06:08:19.540Z,18.40
2022-08-19T06:13:25.516Z,17.70
2022-08-19T06:18:30.463Z,17.37
2022-08-19T06:23:35.920Z,15.07
2022-08-19T06:28:43.698Z,16.00
2022-08-19T06:33:47.439Z,12.90
2022-08-19T06:38:54.106Z,13.53
2022-08-19T06:43:59.534Z,14.47
2022-08-19T06:49:03.918Z,12.33
2022-08-19T06:54:19.183Z,12.10
2022-08-19T06:59:28.203Z,11.33
2022-08-19T07:04:34.849Z,10.60
2022-08-19T07:09:41.520Z,9.67
2022-08-19T07:14:50.415Z,8.93
2022-08-19T07:19:56.474Z,8.37
2022-08-19T07:25:01.825Z,7.97
2022-08-19T07:30:11.702Z,10.77
2022-08-19T07:35:16.630Z,9.10
2022-08-19T07:40:22.014Z,8.10
2022-08-19T07:45:30.211Z,12.70
2022-08-19T07:50:35.464Z,7.97
2022-08-19T07:55:43.927Z,7.70
2022-08-19T08:00:53.232Z,7.40
2022-08-19T08:06:15.026Z,8.27
2022-08-19T08:11:24.026Z,7.30
2022-08-19T08:16:32.590Z,7.63
2022-08-19T08:21:36.962Z,7.67
2022-08-19T08:26:46.840Z,7.00
2022-08-19T08:32:00.155Z,7.90
2022-08-19T08:37:04.651Z,7.93
2022-08-19T08:42:17.498Z,6.90
2022-08-19T08:47:25.342Z,6.57
2022-08-19T08:52:33.362Z,7.07
2022-08-19T08:57:43.701Z,7.10
2022-08-19T09:02:52.598Z,7.10
2022-08-19T09:08:06.006Z,7.13
2022-08-19T09:13:23.293Z,6.00
2022-08-19T09:18:29.759Z,6.80
2022-08-19T09:23:33.726Z,6.90
2022-08-19T09:28:40.262Z,5.53
2022-08-19T09:33:49.742Z,6.10
2022-08-19T09:38:55.913Z,5.37
2022-08-19T09:44:01.139Z,4.93
2022-08-19T09:49:07.445Z,4.40
2022-08-19T09:54:11.431Z,4.60
2022-08-19T09:59:15.298Z,4.40
2022-08-19T10:04:22.313Z,3.90
2022-08-19T10:09:34.364Z,3.83
2022-08-19T10:14:39.310Z,3.37
2022-08-19T10:19:55.373Z,2.60
2022-08-19T10:25:00.028Z,2.17
2022-08-19T10:30:04.172Z,1.90
2022-08-19T10:35:16.045Z,1.53
2022-08-19T10:40:25.926Z,1.50
2022-08-19T10:45:29.727Z,1.67
2022-08-19T10:50:52.324Z,1.10
2022-08-19T10:56:13.520Z,1.20
2022-08-19T11:01:17.394Z,1.50
2022-08-19T11:06:22.590Z,1.20
2022-08-19T11:11:26.339Z,1.40
2022-08-19T11:16:31.075Z,1.47
2022-08-19T11:21:38.803Z,1.63
2022-08-19T11:26:44.009Z,1.60
2022-08-19T11:31:50.387Z,1.43
2022-08-19T11:36:55.643Z,1.50
2022-08-19T11:42:02.035Z,1.40
2022-08-19T11:47:09.126Z,1.20
2022-08-19T11:52:14.636Z,1.40
2022-08-19T11:57:18.499Z,1.30
2022-08-19T12:02:22.681Z,1.40
2022-08-19T12:07:27.732Z,1.30
2022-08-19T12:12:31.282Z,1.20
2022-08-19T12:17:35.086Z,1.07
2022-08-19T12:22:40.401Z,1.00
2022-08-19T12:27:49.637Z,1.00
2022-08-19T12:32:56.268Z,1.30
2022-08-19T12:38:03.851Z,1.20
2022-08-19T12:43:07.818Z,1.23
2022-08-19T12:48:34.374Z,2.00
2022-08-19T12:53:39.264Z,1.20
2022-08-19T12:58:49.038Z,1.60
2022-08-19T13:03:55.626Z,2.43
2022-08-19T13:09:00.736Z,1.43
2022-08-19T13:14:06.898Z,1.03
2022-08-19T13:19:11.750Z,1.40
2022-08-19T13:24:16.672Z,1.47
2022-08-19T13:29:35.422Z,1.60
2022-08-19T13:34:39.363Z,1.70
2022-08-19T13:39:46.098Z,1.43
2022-08-19T13:44:49.840Z,2.10
2022-08-19T13:49:53.855Z,1.30
2022-08-19T13:54:59.743Z,1.40
2022-08-19T14:00:11.846Z,1.63
2022-08-19T14:05:17.728Z,1.60
2022-08-19T14:10:23.881Z,1.50
2022-08-19T14:15:29.148Z,1.67
2022-08-19T14:20:32.785Z,1.70
2022-08-19T14:25:37.974Z,1.90
2022-08-19T14:30:41.799Z,1.57
2022-08-19T14:35:46.081Z,1.50
2022-08-19T14:40:53.310Z,1.57
2022-08-19T14:45:58.432Z,1.70
2022-08-19T14:51:02.574Z,1.57
2022-08-19T14:56:11.820Z,1.80
2022-08-19T15:01:16.301Z,1.50
2022-08-19T15:06:19.947Z,1.30
2022-08-19T15:11:28.900Z,1.47
2022-08-19T15:16:32.461Z,1.73
2022-08-19T15:21:37.306Z,1.47
2022-08-19T15:26:43.755Z,1.63
2022-08-19T15:31:47.401Z,1.70
2022-08-19T15:36:53.055Z,1.70
2022-08-19T15:42:00.564Z,1.80
2022-08-19T15:47:05.328Z,1.70
2022-08-19T15:52:09.155Z,1.60
2022-08-19T15:57:31.497Z,1.93
2022-08-19T16:02:53.596Z,1.63
2022-08-19T16:07:57.710Z,1.80
2022-08-19T16:13:02.647Z,1.73
2022-08-19T16:18:06.314Z,1.97
2022-08-19T16:23:10.288Z,2.00
2022-08-19T16:28:15.475Z,1.97
2022-08-19T16:33:22.829Z,1.90
2022-08-19T16:38:27.672Z,2.40
2022-08-19T16:43:32.633Z,2.33
2022-08-19T16:48:43.049Z,2.50
2022-08-19T16:53:46.787Z,4.63
2022-08-19T16:58:51.880Z,2.40
2022-08-19T17:03:55.854Z,2.50
2022-08-19T17:09:01.192Z,2.10
2022-08-19T17:14:07.263Z,3.40
2022-08-19T17:19:10.778Z,1.90
2022-08-19T17:24:14.413Z,1.80
2022-08-19T17:29:19.213Z,1.73
2022-08-19T17:34:22.876Z,2.17
2022-08-19T17:39:26.475Z,1.63
2022-08-19T17:44:33.197Z,2.70
2022-08-19T17:49:37.554Z,6.30
2022-08-19T17:54:40.959Z,20.23
2022-08-19T17:59:46.076Z,17.30
2022-08-19T18:04:50.234Z,5.60
2022-08-19T18:09:54.987Z,2.67
2022-08-19T18:15:04.088Z,2.57
2022-08-19T18:20:12.383Z,2.20
2022-08-19T18:25:19.255Z,2.30
2022-08-19T18:30:25.938Z,2.97
2022-08-19T18:35:31.028Z,2.10
2022-08-19T18:41:03.926Z,2.50
2022-08-19T18:46:26.300Z,2.13
2022-08-19T18:51:34.795Z,2.70
2022-08-19T18:56:42.408Z,2.70
2022-08-19T19:01:50.794Z,2.10
2022-08-19T19:06:58.038Z,2.60
2022-08-19T19:12:04.388Z,2.20
2022-08-19T19:17:13.000Z,3.37
2022-08-19T19:22:19.930Z,2.40
2022-08-19T19:27:23.542Z,3.33
2022-08-19T19:32:36.978Z,3.17
2022-08-19T19:37:45.213Z,2.83
2022-08-19T19:42:49.075Z,2.07
2022-08-19T19:47:54.169Z,2.27
2022-08-19T19:52:58.576Z,2.00
2022-08-19T19:58:03.003Z,3.40
2022-08-19T20:03:09.447Z,2.90
2022-08-19T20:08:30.436Z,2.77
2022-08-19T20:13:35.726Z,3.43
2022-08-19T20:18:41.278Z,2.20
2022-08-19T20:23:45.060Z,2.30
2022-08-19T20:29:13.874Z,2.53
2022-08-19T20:34:34.812Z,3.17
2022-08-19T20:39:39.042Z,4.60
2022-08-19T20:44:42.556Z,2.87
2022-08-19T20:49:47.589Z,2.57
2022-08-19T20:54:51.228Z,2.50
2022-08-19T20:59:54.982Z,2.83
2022-08-19T21:05:00.270Z,3.50
2022-08-19T21:10:04.811Z,3.80
2022-08-19T21:15:09.346Z,3.00
2022-08-19T21:20:14.600Z,3.80
2022-08-19T21:25:19.236Z,2.70
2022-08-19T21:30:23.205Z,2.60
2022-08-19T21:35:28.958Z,2.90
2022-08-19T21:40:32.678Z,2.90
2022-08-19T21:45:36.455Z,2.67
2022-08-19T21:50:41.614Z,3.27
2022-08-19T21:55:52.771Z,3.20
2022-08-19T22:00:57.005Z,2.73
2022-08-19T22:06:02.057Z,2.67
2022-08-19T22:11:06.033Z,2.20
2022-08-19T22:16:11.384Z,2.97
2022-08-19T22:21:20.162Z,2.83
2022-08-19T22:26:40.995Z,2.40
2022-08-19T22:31:44.714Z,3.30
2022-08-19T22:36:49.774Z,3.20
2022-08-19T22:41:53.706Z,2.90
2022-08-19T22:46:57.275Z,3.47
2022-08-19T22:52:18.443Z,2.60
2022-08-19T22:57:23.453Z,3.10
2022-08-19T23:02:29.817Z,3.10
2022-08-19T23:07:35.266Z,2.80
2022-08-19T23:12:41.836Z,3.27
2022-08-19T23:17:45.643Z,3.20
2022-08-19T23:22:50.994Z,3.30
2022-08-19T23:28:12.385Z,3.00
2022-08-19T23:33:21.657Z,3.43
2022-08-19T23:38:32.322Z,2.90
2022-08-19T23:43:37.499Z,3.90
2022-08-19T23:48:42.960Z,2.50
2022-08-19T23:53:47.881Z,3.07
2022-08-19T23:58:51.470Z,3.60
